KBTR/BTR METAR and TAF weather

Enter ICAO airport designator
Station Type Date Time Source
KBTR METAR 2023/01/30 11:01 UTC NOAA

KBTR 301101Z 00000KT 10SM BKN055 OVC075 18/18 A3006 RMK AO2 T01830178 $


Station Type Date Time Source
KBTR Decoded METAR 2023/01/30 11:01 UTC NOAA

BATON ROUGE METRO RYAN FIELD, LA, United States (KBTR) 30-32N 91-09W 21M
Jan 30, 2023 - 06:01 AM EST / 2023.01.30 1101 UTC
Wind: Calm:0
Visibility: 10 mile(s):0
Sky conditions: overcast
Temperature: 64.9 F (18.3 C)
Dew Point: 64.0 F (17.8 C)
Relative Humidity: 96%
Pressure (altimeter): 30.06 in. Hg (1017 hPa)
ob: KBTR 301101Z 00000KT 10SM BKN055 OVC075 18/18 A3006 RMK AO2 T01830178
cycle: 11

Station Type Date Time Source
KBTR TAF 2023/01/30 11:51 UTC NOAA

TAF
AMD KBTR 301048Z 3011/3106 VRB04KT 2SM BR SCT010 OVC040
TEMPO 3011/3015 1/2SM FG VV002
FM301500 29005KT 3SM BR OVC003
FM301530 VRB05KT P6SM BKN008

Example: see airport list